Time;durP1;ratioP1;P1;durP2;ratioP2;P2;SDS_P1;SDS_P2;PMS_P1;PMS_P2;Temp;Humidity;BMP_temperature;BMP_pressure;BME280_temperature;BME280_humidity;BME280_pressure;Samples;Min_cycle;Max_cycle;Signal;HPM_P1;HPM_P2
2022/08/07 00:00:17;;;;;;;;;;;;;;;12.59;32.51;96400.03;5013223;28;20445;-65
2022/08/07 00:02:42;;;;;;;;;;;;;;;12.59;33.74;96407.19;5007785;28;20084;-66
2022/08/07 00:05:07;;;;;;;;;;;;;;;12.54;32.54;96399.69;5013867;28;19977;-66
2022/08/07 00:07:33;;;;;;;;;;;;;;;12.42;32.64;96405.38;5005340;28;19982;-66
2022/08/07 00:09:58;;;;;;;;;;;;;;;12.59;32.30;96400.03;5004650;28;20105;-67
2022/08/07 00:12:23;;;;;;;;;;;;;;;12.57;32.33;96396.69;5005292;28;20046;-67
2022/08/07 00:14:48;;;;;;;;;;;;;;;12.45;33.73;96395.38;5005703;28;19985;-67
2022/08/07 00:17:14;;;;;;;;;;;;;;;12.32;38.08;96391.41;5004190;28;20490;-67
2022/08/07 00:19:39;;;;;;;;;;;;;;;12.15;35.45;96394.13;5005662;28;20055;-66
2022/08/07 00:22:05;;;;;;;;;;;;;;;12.30;33.74;96393.41;5004375;28;20084;-66
2022/08/07 00:24:30;;;;;;;;;;;;;;;12.38;34.35;96384.56;5006214;28;20048;-65
2022/08/07 00:26:56;;;;;;;;;;;;;;;12.40;32.72;96388.72;5004981;28;19993;-65
2022/08/07 00:29:25;;;;;;;;;;;;;;;12.40;32.41;96385.19;5008337;28;20616;-65
2022/08/07 00:31:53;;;;;;;;;;;;;;;12.38;32.61;96384.56;5004500;28;19970;-65
2022/08/07 00:34:19;;;;;;;;;;;;;;;12.32;32.92;96383.41;5005029;28;20471;-66
2022/08/07 00:36:44;;;;;;;;;;;;;;;12.37;33.43;96383.72;5005863;28;19966;-66
2022/08/07 00:39:10;;;;;;;;;;;;;;;12.18;35.16;96378.75;5005267;28;19993;-65
2022/08/07 00:41:35;;;;;;;;;;;;;;;12.20;34.04;96382.09;5007121;28;19993;-65
2022/08/07 00:44:01;;;;;;;;;;;;;;;12.19;35.86;96375.06;5004222;28;20319;-66
2022/08/07 00:46:26;;;;;;;;;;;;;;;12.13;35.96;96382.75;5004298;28;19989;-66
2022/08/07 00:48:51;;;;;;;;;;;;;;;12.05;33.84;96374.75;5005763;28;19978;-66
2022/08/07 00:51:16;;;;;;;;;;;;;;;11.98;38.27;96369.25;5005787;28;20420;-66
2022/08/07 00:53:42;;;;;;;;;;;;;;;11.98;34.31;96365.75;5006212;28;20085;-66
2022/08/07 00:56:07;;;;;;;;;;;;;;;11.88;37.34;96369.44;5003859;28;20763;-60
2022/08/07 00:58:32;;;;;;;;;;;;;;;11.89;38.89;96363.09;5008379;28;19998;-65
2022/08/07 01:00:58;;;;;;;;;;;;;;;11.95;34.94;96363.41;5015477;28;20020;-66
2022/08/07 01:03:23;;;;;;;;;;;;;;;12.07;35.93;96356.75;5005199;28;20001;-66
2022/08/07 01:05:48;;;;;;;;;;;;;;;12.03;34.89;96355.38;5003291;28;20427;-66
2022/08/07 01:08:13;;;;;;;;;;;;;;;11.94;34.10;96357.25;5012034;28;20065;-66
2022/08/07 01:10:39;;;;;;;;;;;;;;;12.01;34.26;96350.22;5004785;28;20095;-66
2022/08/07 01:13:04;;;;;;;;;;;;;;;11.89;33.62;96355.09;5002575;28;19973;-66
2022/08/07 01:15:29;;;;;;;;;;;;;;;12.11;33.19;96350.06;5004620;28;20370;-66
2022/08/07 01:17:55;;;;;;;;;;;;;;;12.13;33.21;96350.72;4986652;28;20491;-66
2022/08/07 01:20:20;;;;;;;;;;;;;;;12.16;32.88;96349.56;5014291;28;20040;-66
2022/08/07 01:22:46;;;;;;;;;;;;;;;12.17;32.86;96345.06;5009815;28;19993;-66
2022/08/07 01:25:11;;;;;;;;;;;;;;;12.18;34.23;96352.06;4994002;28;20068;-66
2022/08/07 01:27:36;;;;;;;;;;;;;;;12.36;32.47;96346.50;5009716;28;20414;-67
2022/08/07 01:30:02;;;;;;;;;;;;;;;12.51;32.21;96349.31;5005102;28;20531;-66
2022/08/07 01:32:27;;;;;;;;;;;;;;;12.50;32.30;96351.13;5005085;28;19970;-66
2022/08/07 01:34:52;;;;;;;;;;;;;;;12.54;32.40;96351.63;5003190;28;20078;-66
2022/08/07 01:37:17;;;;;;;;;;;;;;;12.60;32.03;96345.59;5013498;28;20218;-66
2022/08/07 01:39:43;;;;;;;;;;;;;;;12.62;32.11;96342.75;5004551;28;20570;-66
2022/08/07 01:42:09;;;;;;;;;;;;;;;12.48;32.28;96346.97;5006329;28;19994;-66
2022/08/07 01:44:34;;;;;;;;;;;;;;;12.59;31.75;96345.75;5004281;28;20061;-66
2022/08/07 01:46:59;;;;;;;;;;;;;;;12.59;31.93;96346.59;5004389;28;20297;-66
2022/08/07 01:49:24;;;;;;;;;;;;;;;12.57;32.01;96347.78;4988333;28;20088;-67
2022/08/07 01:51:50;;;;;;;;;;;;;;;12.61;31.58;96347.25;5003918;28;20021;-67
2022/08/07 01:54:15;;;;;;;;;;;;;;;12.56;31.80;96344.28;5003472;28;19993;-67
2022/08/07 01:56:53;;;;;;;;;;;;;;;12.54;31.80;96351.63;5009574;28;20074;-67
2022/08/07 01:59:23;;;;;;;;;;;;;;;12.54;31.71;96346.28;5005336;28;20483;-67
2022/08/07 02:01:51;;;;;;;;;;;;;;;12.52;31.58;96349.13;5001556;28;19994;-67
2022/08/07 02:04:24;;;;;;;;;;;;;;;12.48;31.82;96349.66;5003314;28;19970;-67
2022/08/07 02:06:50;;;;;;;;;;;;;;;12.49;32.01;96348.63;5018486;28;19993;-66
2022/08/07 02:09:16;;;;;;;;;;;;;;;12.42;31.98;96349.31;4994559;28;20250;-67
2022/08/07 02:11:43;;;;;;;;;;;;;;;12.49;31.97;96343.28;5009496;28;20580;-67
2022/08/07 02:14:08;;;;;;;;;;;;;;;12.47;31.96;96342.63;4993466;28;20080;-67
2022/08/07 02:16:33;;;;;;;;;;;;;;;12.41;31.99;96346.84;5008746;28;20381;-67
2022/08/07 02:19:00;;;;;;;;;;;;;;;12.40;31.80;96346.00;5006076;28;20279;-67
2022/08/07 02:21:25;;;;;;;;;;;;;;;12.45;31.96;96347.31;5010434;28;20003;-67
2022/08/07 02:23:50;;;;;;;;;;;;;;;12.42;32.00;96340.50;5012351;28;20434;-67
2022/08/07 02:26:15;;;;;;;;;;;;;;;12.44;31.81;96341.13;5009758;28;19997;-66
2022/08/07 02:28:41;;;;;;;;;;;;;;;12.42;31.92;96343.16;4996705;28;19989;-66
2022/08/07 02:31:06;;;;;;;;;;;;;;;12.32;32.45;96347.84;5010981;28;19993;-66
2022/08/07 02:33:31;;;;;;;;;;;;;;;12.22;32.68;96342.72;5005538;28;20561;-66
2022/08/07 02:35:56;;;;;;;;;;;;;;;12.21;32.44;96338.38;5009633;28;19965;-66
2022/08/07 02:38:24;;;;;;;;;;;;;;;12.21;32.53;96346.38;5013186;28;19994;-66
2022/08/07 02:40:49;;;;;;;;;;;;;;;12.19;32.49;96340.38;5007611;28;19980;-66
2022/08/07 02:43:14;;;;;;;;;;;;;;;12.19;32.48;96337.69;5005690;28;20006;-66
2022/08/07 02:45:39;;;;;;;;;;;;;;;12.27;32.38;96346.53;5004713;28;20096;-67
2022/08/07 02:48:05;;;;;;;;;;;;;;;12.08;33.05;96334.41;5006293;28;20021;-66
2022/08/07 02:50:31;;;;;;;;;;;;;;;12.15;32.39;96338.06;4989899;28;19990;-66
2022/08/07 02:52:58;;;;;;;;;;;;;;;12.18;32.31;96336.88;5005974;28;20420;-66
2022/08/07 02:55:28;;;;;;;;;;;;;;;12.12;32.50;96335.72;5015714;28;20492;-67
2022/08/07 02:57:54;;;;;;;;;;;;;;;12.08;32.83;96337.06;5010286;28;20180;-66
2022/08/07 03:00:19;;;;;;;;;;;;;;;12.11;32.68;96334.03;5015389;28;20175;-67
2022/08/07 03:02:45;;;;;;;;;;;;;;;11.95;33.08;96329.56;5006489;28;20291;-67
2022/08/07 03:05:10;;;;;;;;;;;;;;;12.08;32.63;96337.06;5004069;28;19966;-67
2022/08/07 03:07:36;;;;;;;;;;;;;;;12.00;32.87;96324.53;5011478;28;20350;-67
2022/08/07 03:10:01;;;;;;;;;;;;;;;12.05;32.61;96321.38;5013577;28;20020;-67
2022/08/07 03:12:26;;;;;;;;;;;;;;;12.09;32.64;96328.06;5013559;28;20066;-67
2022/08/07 03:14:52;;;;;;;;;;;;;;;12.18;32.30;96328.03;5005499;28;20374;-67
2022/08/07 03:17:17;;;;;;;;;;;;;;;12.22;32.58;96327.53;5003791;28;20035;-67
2022/08/07 03:19:42;;;;;;;;;;;;;;;12.09;32.63;96325.38;5006913;28;20024;-67
2022/08/07 03:22:08;;;;;;;;;;;;;;;12.02;32.97;96319.88;5006054;28;20001;-67
2022/08/07 03:24:33;;;;;;;;;;;;;;;11.95;33.30;96321.56;4993122;28;20352;-67
2022/08/07 03:26:59;;;;;;;;;;;;;;;11.85;33.76;96320.88;5007259;28;20103;-65
2022/08/07 03:29:38;;;;;;;;;;;;;;;11.73;33.74;96326.56;5008867;28;19993;-67
2022/08/07 03:32:04;;;;;;;;;;;;;;;11.70;34.17;96323.41;5006204;28;19970;-67
2022/08/07 03:34:29;;;;;;;;;;;;;;;11.62;35.58;96322.41;5004853;28;19990;-67
2022/08/07 03:36:54;;;;;;;;;;;;;;;11.44;39.63;96317.25;4993656;28;20016;-67
2022/08/07 03:39:20;;;;;;;;;;;;;;;11.26;38.96;96309.41;5008855;28;19993;-67
2022/08/07 03:41:45;;;;;;;;;;;;;;;11.31;36.57;96308.91;5001566;28;20474;-67
2022/08/07 03:44:11;;;;;;;;;;;;;;;11.13;39.90;96316.03;4990004;28;20476;-67
2022/08/07 03:46:36;;;;;;;;;;;;;;;11.31;39.96;96312.41;5005903;28;20056;-67
2022/08/07 03:49:02;;;;;;;;;;;;;;;11.17;36.55;96310.41;5005737;28;20063;-66
2022/08/07 03:51:27;;;;;;;;;;;;;;;10.60;36.17;96305.59;5006177;28;19997;-67
2022/08/07 03:53:52;;;;;;;;;;;;;;;10.52;41.63;96308.22;4992864;28;20500;-67
2022/08/07 03:56:18;;;;;;;;;;;;;;;10.54;37.29;96314.19;5006258;28;20005;-67
2022/08/07 03:58:43;;;;;;;;;;;;;;;10.51;38.12;96306.56;5008259;28;20065;-67
2022/08/07 04:01:09;;;;;;;;;;;;;;;10.90;38.08;96309.66;5006609;28;20085;-67
2022/08/07 04:03:34;;;;;;;;;;;;;;;10.99;43.50;96316.69;5006193;28;19974;-67
2022/08/07 04:05:59;;;;;;;;;;;;;;;10.97;42.08;96313.31;5013298;28;20547;-67
2022/08/07 04:08:25;;;;;;;;;;;;;;;10.95;41.49;96312.69;5010827;28;20309;-67
2022/08/07 04:10:50;;;;;;;;;;;;;;;11.02;42.99;96313.69;5006689;28;20074;-67
2022/08/07 04:13:15;;;;;;;;;;;;;;;10.84;37.20;96309.31;5006766;28;20031;-67
2022/08/07 04:15:41;;;;;;;;;;;;;;;10.93;38.68;96315.50;5004601;28;19961;-67
2022/08/07 04:18:06;;;;;;;;;;;;;;;11.06;37.49;96322.19;5008197;28;20033;-67
2022/08/07 04:20:31;;;;;;;;;;;;;;;10.98;36.14;96312.34;5012075;28;19990;-67
2022/08/07 04:22:57;;;;;;;;;;;;;;;11.06;35.27;96312.38;5007749;28;19981;-67
2022/08/07 04:25:22;;;;;;;;;;;;;;;10.93;35.28;96317.31;5006929;28;20435;-67
2022/08/07 04:27:47;;;;;;;;;;;;;;;11.45;36.87;96315.41;4996421;28;20113;-67
2022/08/07 04:30:13;;;;;;;;;;;;;;;11.44;35.82;96316.41;5014498;28;20003;-67
2022/08/07 04:32:38;;;;;;;;;;;;;;;11.13;34.99;96318.72;5012185;28;19973;-67
2022/08/07 04:35:04;;;;;;;;;;;;;;;11.42;40.17;96329.09;4988015;28;19998;-68
2022/08/07 04:37:30;;;;;;;;;;;;;;;11.44;36.72;96327.91;5007380;28;20051;-67
2022/08/07 04:39:55;;;;;;;;;;;;;;;11.16;35.30;96327.38;4998267;28;20474;-67
2022/08/07 04:42:20;;;;;;;;;;;;;;;11.41;35.80;96327.41;5010716;28;19989;-67
2022/08/07 04:44:45;;;;;;;;;;;;;;;11.57;35.34;96330.09;5006982;28;19970;-67
2022/08/07 04:47:15;;;;;;;;;;;;;;;11.75;35.03;96331.75;5003870;28;19989;-66
2022/08/07 04:49:40;;;;;;;;;;;;;;;11.77;39.55;96335.09;5003021;28;20366;-67
2022/08/07 04:52:08;;;;;;;;;;;;;;;11.79;36.68;96337.59;5006828;28;20080;-66
2022/08/07 04:54:35;;;;;;;;;;;;;;;11.70;35.49;96337.56;5006191;28;19998;-67
2022/08/07 04:57:10;;;;;;;;;;;;;;;11.94;37.31;96340.41;5003997;28;19974;-67
2022/08/07 04:59:36;;;;;;;;;;;;;;;11.89;37.99;96339.06;5006321;28;20380;-67
2022/08/07 05:02:03;;;;;;;;;;;;;;;11.59;39.25;96336.06;4988976;28;19994;-67
2022/08/07 05:04:43;;;;;;;;;;;;;;;11.39;35.30;96343.56;5009107;28;19970;-67
2022/08/07 05:07:27;;;;;;;;;;;;;;;11.24;35.71;96341.56;5006815;28;19990;-67
2022/08/07 05:10:13;;;;;;;;;;;;;;;11.41;36.39;96340.72;5005213;28;20608;-67
2022/08/07 05:13:01;;;;;;;;;;;;;;;11.27;36.66;96340.41;5005998;28;20521;-67
2022/08/07 05:15:31;;;;;;;;;;;;;;;11.02;37.12;96356.31;4994322;28;19985;-67
2022/08/07 05:17:57;;;;;;;;;;;;;;;11.51;40.10;96350.25;4994013;28;20464;-67
2022/08/07 05:20:26;;;;;;;;;;;;;;;12.06;37.24;96346.19;4995001;28;20457;-68
2022/08/07 05:22:52;;;;;;;;;;;;;;;12.11;39.18;96352.72;4993740;28;20502;-67
2022/08/07 05:25:18;;;;;;;;;;;;;;;12.17;38.95;96358.41;5006760;28;20123;-67
2022/08/07 05:27:43;;;;;;;;;;;;;;;12.17;37.50;96355.75;5004968;28;19989;-68
2022/08/07 05:30:08;;;;;;;;;;;;;;;12.15;35.37;96348.75;5004266;28;20039;-67
2022/08/07 05:32:34;;;;;;;;;;;;;;;12.19;35.92;96351.03;5003312;28;19977;-67
2022/08/07 05:34:59;;;;;;;;;;;;;;;12.61;36.53;96357.94;5006335;28;20537;-67
2022/08/07 05:37:24;;;;;;;;;;;;;;;13.03;36.67;96357.78;5009061;28;20099;-67
2022/08/07 05:39:49;;;;;;;;;;;;;;;13.24;35.93;96356.31;5006357;28;20377;-67
2022/08/07 05:42:15;;;;;;;;;;;;;;;13.52;37.18;96366.50;5005911;28;19989;-67
2022/08/07 05:44:40;;;;;;;;;;;;;;;13.20;32.87;96365.69;5018696;28;19973;-67
2022/08/07 05:47:05;;;;;;;;;;;;;;;13.57;36.13;96372.16;5008195;28;20027;-67
2022/08/07 05:49:31;;;;;;;;;;;;;;;13.59;32.47;96363.94;5007423;28;19998;-67
2022/08/07 05:51:56;;;;;;;;;;;;;;;13.97;35.15;96372.00;5008114;28;20025;-67
2022/08/07 05:54:21;;;;;;;;;;;;;;;14.01;35.11;96370.63;5008967;28;20541;-67
2022/08/07 05:56:46;;;;;;;;;;;;;;;14.15;34.48;96374.38;5010505;28;20441;-67
2022/08/07 05:59:12;;;;;;;;;;;;;;;14.27;31.64;96372.06;5016375;28;20378;-67
2022/08/07 06:01:38;;;;;;;;;;;;;;;14.29;31.71;96380.75;4990557;28;20078;-67
2022/08/07 06:04:03;;;;;;;;;;;;;;;14.52;33.83;96376.34;4995549;28;20461;-67
2022/08/07 06:06:28;;;;;;;;;;;;;;;14.75;33.75;96378.13;5012600;28;19990;-67
2022/08/07 06:08:54;;;;;;;;;;;;;;;14.74;31.09;96377.28;5010503;28;19982;-67
2022/08/07 06:11:19;;;;;;;;;;;;;;;14.42;31.34;96374.75;5013682;28;20362;-67
2022/08/07 06:13:44;;;;;;;;;;;;;;;14.70;31.53;96375.97;5008759;28;19986;-67
2022/08/07 06:16:09;;;;;;;;;;;;;;;14.96;34.46;96380.03;5010476;28;20453;-67
2022/08/07 06:18:35;;;;;;;;;;;;;;;15.49;31.51;96370.91;5008515;28;20535;-67
2022/08/07 06:21:00;;;;;;;;;;;;;;;15.88;31.52;96369.63;5008763;28;19994;-67
2022/08/07 06:23:25;;;;;;;;;;;;;;;15.80;32.13;96368.94;5015376;28;19989;-67
2022/08/07 06:25:51;;;;;;;;;;;;;;;16.05;29.98;96379.28;5006395;28;20120;-67
2022/08/07 06:28:16;;;;;;;;;;;;;;;16.37;29.89;96377.06;5007020;28;19997;-67
2022/08/07 06:30:42;;;;;;;;;;;;;;;16.45;29.24;96366.16;5007965;28;20036;-67
2022/08/07 06:33:07;;;;;;;;;;;;;;;16.70;29.61;96379.13;5007110;28;20437;-67
2022/08/07 06:35:33;;;;;;;;;;;;;;;16.98;28.88;96369.31;5009534;28;20091;-67
2022/08/07 06:37:58;;;;;;;;;;;;;;;16.88;28.80;96369.69;5006716;28;19996;-67
2022/08/07 06:40:24;;;;;;;;;;;;;;;16.86;28.52;96369.06;5015004;28;19965;-67
2022/08/07 06:42:49;;;;;;;;;;;;;;;17.16;27.96;96371.47;5006373;28;20001;-67
2022/08/07 06:45:15;;;;;;;;;;;;;;;17.41;29.67;96368.25;5004492;28;20419;-67
2022/08/07 06:47:40;;;;;;;;;;;;;;;17.40;27.64;96369.25;5005728;28;19979;-67
2022/08/07 06:50:05;;;;;;;;;;;;;;;17.33;29.18;96365.75;5005581;28;20028;-67
2022/08/07 06:52:32;;;;;;;;;;;;;;;17.34;30.40;96367.41;5008924;28;20476;-67
2022/08/07 06:54:57;;;;;;;;;;;;;;;17.42;28.33;96367.19;5010706;28;19987;-67
2022/08/07 06:57:23;;;;;;;;;;;;;;;17.76;27.82;96359.16;5006131;28;20071;-67
2022/08/07 06:59:48;;;;;;;;;;;;;;;17.78;29.34;96362.50;5019284;28;20549;-67
2022/08/07 07:02:17;;;;;;;;;;;;;;;17.72;27.97;96364.16;5010471;28;20001;-67
2022/08/07 07:04:43;;;;;;;;;;;;;;;17.96;27.22;96358.38;5006979;28;19971;-67
2022/08/07 07:07:08;;;;;;;;;;;;;;;18.01;28.56;96362.09;5013184;28;20420;-67
2022/08/07 07:09:33;;;;;;;;;;;;;;;18.05;28.12;96357.97;4991568;28;20058;-66
2022/08/07 07:12:05;;;;;;;;;;;;;;;18.31;26.72;96360.84;5015303;28;19971;-67
2022/08/07 07:14:31;;;;;;;;;;;;;;;18.39;28.61;96365.19;5007256;28;19992;-67
2022/08/07 07:16:58;;;;;;;;;;;;;;;18.66;26.39;96351.69;5009981;28;19965;-67
2022/08/07 07:19:28;;;;;;;;;;;;;;;18.76;25.54;96356.63;5008287;28;20060;-67
2022/08/07 07:21:54;;;;;;;;;;;;;;;18.81;26.51;96363.03;4986103;28;19996;-67
2022/08/07 07:24:19;;;;;;;;;;;;;;;19.04;27.08;96360.88;5007653;28;20060;-67
2022/08/07 07:26:44;;;;;;;;;;;;;;;19.31;24.94;96358.06;5007406;28;20420;-67
2022/08/07 07:29:11;;;;;;;;;;;;;;;19.24;25.51;96359.94;5004314;28;20438;-67
2022/08/07 07:31:39;;;;;;;;;;;;;;;19.46;25.60;96363.16;5006068;28;20538;-67
2022/08/07 07:34:08;;;;;;;;;;;;;;;19.62;26.71;96359.13;5014003;28;19986;-67
2022/08/07 07:36:33;;;;;;;;;;;;;;;19.51;24.67;96368.72;5005917;28;19967;-66
2022/08/07 07:38:59;;;;;;;;;;;;;;;19.62;25.48;96363.69;5008013;28;20503;-67
2022/08/07 07:41:24;;;;;;;;;;;;;;;19.98;25.30;96359.50;5012359;28;20518;-66
2022/08/07 07:43:50;;;;;;;;;;;;;;;19.94;25.28;96350.16;5006592;28;20117;-67
2022/08/07 07:46:15;;;;;;;;;;;;;;;19.44;26.87;96360.69;5005181;28;20486;-67
2022/08/07 07:48:40;;;;;;;;;;;;;;;19.97;24.61;96355.16;5006454;28;20406;-67
2022/08/07 07:51:06;;;;;;;;;;;;;;;20.21;24.84;96355.34;5008799;28;20004;-67
2022/08/07 07:53:31;;;;;;;;;;;;;;;20.53;24.94;96354.44;4993005;28;20345;-67
2022/08/07 07:55:57;;;;;;;;;;;;;;;20.64;24.58;96350.16;5006570;28;19965;-67
2022/08/07 07:58:23;;;;;;;;;;;;;;;20.85;24.24;96346.19;4989688;28;20082;-66
2022/08/07 08:00:48;;;;;;;;;;;;;;;21.16;22.66;96355.16;5014399;28;20020;-66
2022/08/07 08:03:14;;;;;;;;;;;;;;;20.73;23.03;96349.63;5004275;28;20008;-67
2022/08/07 08:05:40;;;;;;;;;;;;;;;21.03;21.85;96350.75;5003710;28;19917;-67
2022/08/07 08:08:05;;;;;;;;;;;;;;;21.32;21.11;96353.75;5011605;28;19928;-67
2022/08/07 08:10:30;;;;;;;;;;;;;;;21.66;20.86;96350.53;5006280;28;19925;-67
2022/08/07 08:12:55;;;;;;;;;;;;;;;21.67;20.31;96343.22;4987382;28;20061;-66
2022/08/07 08:15:21;;;;;;;;;;;;;;;21.37;20.37;96348.44;5005621;28;19928;-67
2022/08/07 08:17:46;;;;;;;;;;;;;;;21.52;21.20;96347.22;5004840;28;19921;-66
2022/08/07 08:20:11;;;;;;;;;;;;;;;21.46;21.76;96348.97;5010146;28;19921;-66
2022/08/07 08:28:08;;;;;;;;;;;;;;;22.02;20.27;96348.75;5011342;28;19928;-67
2022/08/07 08:30:33;;;;;;;;;;;;;;;22.20;20.58;96341.53;5006475;28;19992;-66
2022/08/07 08:33:00;;;;;;;;;;;;;;;21.86;21.89;96347.50;5008142;28;20142;-66
2022/08/07 08:35:25;;;;;;;;;;;;;;;22.33;20.80;96343.19;4989931;28;20357;-66
2022/08/07 08:37:51;;;;;;;;;;;;;;;22.46;19.67;96338.59;5005760;28;19918;-66
2022/08/07 08:40:36;;;;;;;;;;;;;;;22.43;19.33;96339.88;5007929;28;20085;-67
2022/08/07 08:43:03;;;;;;;;;;;;;;;22.69;21.17;96348.63;5013064;28;20512;-67
2022/08/07 08:45:40;;;;;;;;;;;;;;;22.63;20.72;96344.13;5004283;28;20013;-67
2022/08/07 08:48:12;;;;;;;;;;;;;;;22.85;19.32;96338.94;5007813;28;20516;-67
2022/08/07 08:50:39;;;;;;;;;;;;;;;23.29;20.46;96345.75;5005930;28;20489;-67
2022/08/07 08:53:07;;;;;;;;;;;;;;;23.43;19.02;96338.13;5009582;28;20402;-67
2022/08/07 08:55:35;;;;;;;;;;;;;;;23.17;19.63;96343.09;5007131;28;20406;-66
2022/08/07 08:58:21;;;;;;;;;;;;;;;23.37;18.51;96337.22;5008807;28;19967;-67
2022/08/07 09:00:53;;;;;;;;;;;;;;;23.40;19.43;96342.19;4978780;28;19951;-66
2022/08/07 09:03:38;;;;;;;;;;;;;;;23.46;18.86;96340.38;5001345;28;19962;-67
2022/08/07 09:06:23;;;;;;;;;;;;;;;23.54;18.84;96331.81;5012952;28;20004;-66
2022/08/07 09:09:00;;;;;;;;;;;;;;;23.58;17.66;96332.16;4987596;28;19963;-67
2022/08/07 09:11:29;;;;;;;;;;;;;;;23.60;18.85;96330.03;5003628;28;19963;-67
2022/08/07 09:14:01;;;;;;;;;;;;;;;23.59;18.46;96336.50;5004320;28;21156;-66
2022/08/07 09:16:45;;;;;;;;;;;;;;;23.68;19.46;96326.91;5010571;28;20004;-66
2022/08/07 09:19:16;;;;;;;;;;;;;;;23.73;17.87;96326.16;5014726;28;20022;-67
2022/08/07 09:21:52;;;;;;;;;;;;;;;23.75;18.58;96331.34;5010373;28;19958;-67
2022/08/07 09:24:24;;;;;;;;;;;;;;;23.87;18.01;96337.56;5000408;28;20313;-66
2022/08/07 09:26:55;;;;;;;;;;;;;;;23.84;16.89;96329.91;5006422;28;19928;-67
2022/08/07 09:29:26;;;;;;;;;;;;;;;23.75;18.70;96317.78;4991187;28;19937;-66
2022/08/07 09:31:57;;;;;;;;;;;;;;;23.86;18.89;96321.50;4993260;28;20234;-66
2022/08/07 09:34:25;;;;;;;;;;;;;;;24.14;18.79;96320.59;5010686;28;20019;-67
2022/08/07 09:36:51;;;;;;;;;;;;;;;24.66;17.71;96321.31;5009914;28;20006;-66
2022/08/07 09:39:16;;;;;;;;;;;;;;;24.88;16.99;96323.19;5005823;28;19921;-66
2022/08/07 09:41:42;;;;;;;;;;;;;;;25.07;16.55;96315.56;5008453;28;19962;-66
2022/08/07 09:44:13;;;;;;;;;;;;;;;24.29;16.90;96319.13;5006934;28;20446;-66
2022/08/07 09:46:42;;;;;;;;;;;;;;;24.49;17.65;96315.91;5004508;28;19999;-67
2022/08/07 09:49:14;;;;;;;;;;;;;;;24.45;18.83;96312.06;5004026;28;19966;-67
2022/08/07 09:51:45;;;;;;;;;;;;;;;25.00;16.33;96305.94;5007382;28;19977;-67
2022/08/07 09:54:17;;;;;;;;;;;;;;;25.14;16.95;96309.91;5007213;28;19921;-66
2022/08/07 09:56:45;;;;;;;;;;;;;;;24.87;15.87;96313.38;5007937;28;20037;-66
2022/08/07 09:59:29;;;;;;;;;;;;;;;24.84;16.12;96303.84;5007653;28;19921;-66
2022/08/07 10:02:04;;;;;;;;;;;;;;;24.20;16.86;96297.81;5008650;28;19955;-66
2022/08/07 10:04:29;;;;;;;;;;;;;;;24.99;16.48;96286.06;5018180;28;20340;-66
2022/08/07 10:06:55;;;;;;;;;;;;;;;25.07;16.73;96287.50;5011637;28;19921;-67
2022/08/07 10:09:23;;;;;;;;;;;;;;;24.97;16.36;96282.75;5010395;28;19929;-67
2022/08/07 10:12:16;;;;;;;;;;;;;;;24.47;16.56;96282.69;5009619;28;19936;-66
2022/08/07 10:14:53;;;;;;;;;;;;;;;22.45;18.09;96272.69;5005041;28;19921;-66
2022/08/07 10:17:31;;;;;;;;;;;;;;;23.98;18.04;96269.75;5010199;28;19991;-66
2022/08/07 10:19:59;;;;;;;;;;;;;;;24.89;17.05;96266.84;5015338;28;19917;-66
2022/08/07 10:22:43;;;;;;;;;;;;;;;24.90;17.62;96263.91;5014527;28;19983;-66
2022/08/07 10:25:27;;;;;;;;;;;;;;;25.36;17.09;96262.72;4999827;28;20385;-67
2022/08/07 10:28:08;;;;;;;;;;;;;;;25.58;17.61;96270.84;5001499;28;20397;-66
2022/08/07 10:30:52;;;;;;;;;;;;;;;24.80;17.96;96263.75;4998853;28;20177;-67
2022/08/07 10:33:21;;;;;;;;;;;;;;;25.03;17.93;96265.41;5010450;28;19917;-66
2022/08/07 10:35:59;;;;;;;;;;;;;;;25.33;17.54;96266.78;4992231;28;20340;-67
2022/08/07 10:38:39;;;;;;;;;;;;;;;25.82;17.49;96273.22;5008736;28;19972;-66
2022/08/07 10:41:06;;;;;;;;;;;;;;;25.99;16.77;96269.50;5013242;28;20389;-66
2022/08/07 10:43:36;;;;;;;;;;;;;;;23.35;17.66;96268.72;5012150;28;19935;-66
2022/08/07 10:46:23;;;;;;;;;;;;;;;23.91;17.21;96268.03;5009482;28;19925;-66
2022/08/07 10:49:13;;;;;;;;;;;;;;;21.24;19.14;96275.50;5012382;28;19929;-66
2022/08/07 10:51:38;;;;;;;;;;;;;;;23.41;17.61;96264.19;4988136;28;19917;-66
2022/08/07 10:54:03;;;;;;;;;;;;;;;24.21;17.79;96263.28;4990985;28;20032;-66
2022/08/07 10:56:46;;;;;;;;;;;;;;;24.82;17.36;96254.25;4998580;28;19966;-66
2022/08/07 10:59:30;;;;;;;;;;;;;;;25.34;15.99;96256.72;5007065;28;19925;-66
2022/08/07 11:01:56;;;;;;;;;;;;;;;25.58;18.38;96248.22;5005534;28;20004;-66
2022/08/07 11:04:23;;;;;;;;;;;;;;;26.11;15.06;96247.53;4994822;28;20001;-66
2022/08/07 11:07:09;;;;;;;;;;;;;;;26.26;14.95;96251.41;4988219;28;19921;-66
2022/08/07 11:09:39;;;;;;;;;;;;;;;26.17;15.14;96246.44;4986734;28;20397;-66
2022/08/07 11:12:17;;;;;;;;;;;;;;;26.50;15.80;96243.59;4988830;28;19921;-67
2022/08/07 11:14:47;;;;;;;;;;;;;;;26.31;16.67;96241.34;4998244;28;19968;-67
2022/08/07 11:17:33;;;;;;;;;;;;;;;26.04;15.51;96241.47;4994707;28;20005;-66
2022/08/07 11:20:00;;;;;;;;;;;;;;;26.33;17.54;96231.00;4992384;28;19916;-66
2022/08/07 11:22:29;;;;;;;;;;;;;;;26.58;15.42;96234.94;4985235;28;20505;-66
2022/08/07 11:25:03;;;;;;;;;;;;;;;26.68;16.26;96236.88;4997412;28;20397;-66
2022/08/07 11:27:32;;;;;;;;;;;;;;;25.94;15.87;96232.09;4990781;28;19960;-66
2022/08/07 11:29:57;;;;;;;;;;;;;;;26.37;17.14;96228.53;4996808;28;19932;-66
2022/08/07 11:32:28;;;;;;;;;;;;;;;26.36;17.74;96225.00;4994359;28;19918;-66
2022/08/07 11:34:57;;;;;;;;;;;;;;;26.76;16.31;96224.63;4993290;28;19917;-66
2022/08/07 11:37:22;;;;;;;;;;;;;;;26.64;17.45;96224.84;4991422;28;19925;-66
2022/08/07 11:39:57;;;;;;;;;;;;;;;26.69;17.30;96218.59;5013885;28;20130;-67
2022/08/07 11:42:25;;;;;;;;;;;;;;;26.41;16.51;96218.72;4998454;28;20361;-67
2022/08/07 11:44:52;;;;;;;;;;;;;;;26.75;17.58;96215.59;5005492;28;19925;-66
2022/08/07 11:47:38;;;;;;;;;;;;;;;27.32;15.31;96217.63;4991996;28;20018;-66
2022/08/07 11:50:22;;;;;;;;;;;;;;;27.13;17.47;96217.34;4988724;28;19937;-66
2022/08/07 11:53:06;;;;;;;;;;;;;;;27.39;15.35;96203.69;4989626;28;19921;-66
2022/08/07 11:55:50;;;;;;;;;;;;;;;27.85;14.55;96208.34;4994606;28;19967;-66
2022/08/07 11:58:27;;;;;;;;;;;;;;;27.69;16.49;96207.53;4991313;28;20008;-66
2022/08/07 12:00:52;;;;;;;;;;;;;;;28.08;13.83;96197.06;4996701;28;19921;-66
2022/08/07 12:03:36;;;;;;;;;;;;;;;27.82;14.45;96199.84;4989986;28;19933;-65
2022/08/07 12:06:21;;;;;;;;;;;;;;;27.76;14.07;96199.88;4991977;28;20370;-66
2022/08/07 12:08:48;;;;;;;;;;;;;;;27.06;15.85;96190.28;4995210;28;19929;-66
2022/08/07 12:11:21;;;;;;;;;;;;;;;27.25;14.12;96193.31;4995289;28;19922;-66
2022/08/07 12:13:57;;;;;;;;;;;;;;;27.47;16.60;96199.59;4989929;28;19980;-66
2022/08/07 12:16:30;;;;;;;;;;;;;;;28.24;14.25;96195.13;5002386;28;19925;-65
2022/08/07 12:19:01;;;;;;;;;;;;;;;28.61;13.49;96193.03;4992176;28;19922;-66
2022/08/07 12:21:39;;;;;;;;;;;;;;;26.41;14.97;96180.53;4998209;28;19921;-66
2022/08/07 12:24:08;;;;;;;;;;;;;;;27.18;15.93;96192.75;4994250;28;19925;-66
2022/08/07 12:26:33;;;;;;;;;;;;;;;27.63;15.17;96192.25;4986231;28;20247;-66
2022/08/07 12:29:12;;;;;;;;;;;;;;;28.50;13.40;96186.78;4987802;28;20069;-66
2022/08/07 12:31:55;;;;;;;;;;;;;;;28.74;13.14;96191.63;4988062;28;19929;-66
2022/08/07 12:34:21;;;;;;;;;;;;;;;28.57;15.00;96175.53;5007368;28;20004;-66
2022/08/07 12:36:46;;;;;;;;;;;;;;;28.67;15.43;96178.25;5009109;28;20007;-67
2022/08/07 12:39:11;;;;;;;;;;;;;;;29.04;14.84;96178.84;4989936;28;19933;-67
2022/08/07 12:41:36;;;;;;;;;;;;;;;29.02;13.04;96176.38;4995693;28;20089;-67
2022/08/07 12:44:03;;;;;;;;;;;;;;;28.66;12.92;96173.88;4990580;28;19948;-66
2022/08/07 12:46:35;;;;;;;;;;;;;;;28.92;12.63;96168.22;4996374;28;19961;-66
2022/08/07 12:49:06;;;;;;;;;;;;;;;28.81;13.25;96178.44;4986727;28;19918;-66
2022/08/07 12:51:36;;;;;;;;;;;;;;;29.23;12.63;96170.75;4992571;28;19963;-66
2022/08/07 12:54:14;;;;;;;;;;;;;;;29.26;13.14;96164.69;4997314;28;19921;-66
2022/08/07 12:56:41;;;;;;;;;;;;;;;29.11;13.79;96171.09;4996475;28;20033;-66
2022/08/07 12:59:06;;;;;;;;;;;;;;;29.29;12.96;96161.41;4998418;28;20448;-66